Terminal Aerodrome Forecast
Issued by NWS

Home | Current Version | Previous Version | Text Only | Print | Product List | Glossary On
Versions: 1 2 3 4 5 6 7 8 9 10 11 12 13 14 15 16 17 18 19 20
000
FTAK31 PAFA 221126
TAFAFA
TAF
PAFA 221126Z 2212/2318 36006KT P6SM SCT060 SCT100 BKN200
     FM221800 05004KT P6SM SCT050 SCT200
     FM231400 VRB04KT P6SM BKN050 OVC100=

USA.gov is the U.S. government's official web portal to all federal, state and local government web resources and services.